Time;durP1;ratioP1;P1;durP2;ratioP2;P2;SDS_P1;SDS_P2;PMS_P1;PMS_P2;Temp;Humidity;BMP_temperature;BMP_pressure;BME280_temperature;BME280_humidity;BME280_pressure;Samples;Min_cycle;Max_cycle;Signal;HPM_P1;HPM_P2
2021/03/21 00:01:41;;;;;;;34.73;9.80;;;;;;;-2.32;69.91;100709.02;124355;1112;23030;-56
2021/03/21 00:04:13;;;;;;;41.50;11.48;;;;;;;-2.30;70.09;100700.41;124818;1112;22989;-57
2021/03/21 00:06:42;;;;;;;39.10;11.67;;;;;;;-2.27;70.00;100694.17;124322;1112;23024;-57
2021/03/21 00:09:12;;;;;;;37.13;10.57;;;;;;;-2.27;69.50;100694.96;124498;1112;23083;-55
2021/03/21 00:11:42;;;;;;;29.27;9.50;;;;;;;-2.24;69.68;100687.95;124464;1112;23080;-57
2021/03/21 00:14:11;;;;;;;36.40;10.07;;;;;;;-2.23;69.54;100681.30;124403;1112;24674;-57
2021/03/21 00:16:40;;;;;;;34.30;9.30;;;;;;;-2.21;70.13;100679.76;124275;1112;26527;-55
2021/03/21 00:19:09;;;;;;;35.13;9.17;;;;;;;-2.21;70.23;100671.55;124229;1112;23194;-55
2021/03/21 00:21:38;;;;;;;36.55;9.03;;;;;;;-2.19;70.13;100666.48;124408;1112;23126;-57
2021/03/21 00:24:09;;;;;;;33.95;8.45;;;;;;;-2.17;69.92;100660.66;124235;1112;23191;-56
2021/03/21 00:26:39;;;;;;;37.87;9.40;;;;;;;-2.17;69.57;100650.47;124419;1112;22993;-54
2021/03/21 00:29:09;;;;;;;35.47;8.53;;;;;;;-2.14;69.90;100657.13;124420;1112;23074;-57
2021/03/21 00:31:39;;;;;;;36.03;9.28;;;;;;;-2.14;69.61;100654.40;124347;1112;23074;-57
2021/03/21 00:34:08;;;;;;;31.75;9.00;;;;;;;-2.12;69.63;100647.38;124320;1111;23116;-56
2021/03/21 00:36:37;;;;;;;24.50;7.50;;;;;;;-2.08;69.61;100647.39;124368;1112;26379;-58
2021/03/21 00:39:06;;;;;;;28.80;7.67;;;;;;;-2.07;69.65;100651.71;124347;1112;23181;-56
2021/03/21 00:41:35;;;;;;;26.53;7.47;;;;;;;-2.05;69.97;100638.43;124507;1113;26421;-56
2021/03/21 00:44:05;;;;;;;25.70;5.63;;;;;;;-2.06;69.46;100634.11;124364;1111;22987;-56
2021/03/21 00:46:34;;;;;;;26.48;7.03;;;;;;;-2.04;69.61;100635.30;124434;1111;23022;-56
2021/03/21 00:49:04;;;;;;;28.13;8.53;;;;;;;-2.04;69.86;100616.16;124355;1111;23052;-54
2021/03/21 00:51:32;;;;;;;;;;;;;;;-2.01;69.50;100612.66;124468;1113;23027;-56
2021/03/21 00:54:01;;;;;;;30.07;6.53;;;;;;;-1.99;69.73;100612.27;124375;1112;22199;-58
2021/03/21 00:56:34;;;;;;;25.47;6.73;;;;;;;-1.96;70.38;100606.01;124510;1113;23083;-56
2021/03/21 00:59:04;;;;;;;22.03;5.57;;;;;;;-1.93;70.08;100597.05;124349;1112;26550;-56
2021/03/21 01:01:33;;;;;;;26.40;6.58;;;;;;;-1.92;69.52;100593.13;124440;1112;24719;-57
2021/03/21 01:04:04;;;;;;;25.62;6.60;;;;;;;-1.91;70.19;100575.55;124463;1111;27887;-56
2021/03/21 01:06:33;;;;;;;21.00;5.92;;;;;;;-1.91;69.43;100573.61;124630;1111;23094;-58
2021/03/21 01:09:08;;;;;;;30.10;6.70;;;;;;;-1.90;69.46;100574.36;124505;1112;26018;-57
2021/03/21 01:11:38;;;;;;;21.37;5.97;;;;;;;-1.88;69.73;100563.81;124414;1112;23285;-56
2021/03/21 01:14:09;;;;;;;22.50;6.20;;;;;;;-1.86;69.73;100561.48;124454;1112;26999;-56
2021/03/21 01:16:41;;;;;;;23.60;6.43;;;;;;;-1.84;69.81;100548.98;124461;1112;26488;-56
2021/03/21 01:19:15;;;;;;;26.43;6.20;;;;;;;-1.83;69.31;100545.09;124363;1112;23030;-57
2021/03/21 01:21:44;;;;;;;24.97;6.83;;;;;;;-1.82;69.98;100535.69;124464;1112;23027;-58
2021/03/21 01:24:15;;;;;;;24.10;6.73;;;;;;;-1.80;70.13;100530.61;124519;1112;23091;-57
2021/03/21 01:26:44;;;;;;;24.07;5.47;;;;;;;-1.76;69.48;100525.92;124430;1110;26488;-57
2021/03/21 01:29:13;;;;;;;19.43;5.43;;;;;;;-1.74;69.31;100514.61;125146;1112;26054;-57
2021/03/21 01:31:43;;;;;;;19.13;5.33;;;;;;;-1.75;69.85;100515.77;124268;1112;23482;-56
2021/03/21 01:34:14;;;;;;;19.60;5.17;;;;;;;-1.73;69.80;100505.20;124572;1112;23151;-59
2021/03/21 01:36:44;;;;;;;22.25;6.25;;;;;;;-1.73;69.76;100497.79;124329;1112;23023;-57
2021/03/21 01:39:25;;;;;;;18.37;4.70;;;;;;;-1.71;69.81;100502.87;124414;1112;27505;-58
2021/03/21 01:42:02;;;;;;;16.50;5.20;;;;;;;-1.72;69.57;100487.63;124640;1112;23202;-56
2021/03/21 01:44:32;;;;;;;18.93;5.07;;;;;;;-1.71;70.27;100487.23;124564;1112;24672;-56
2021/03/21 01:47:17;;;;;;;20.43;5.75;;;;;;;-1.68;69.67;100480.96;124547;1112;26459;-59
2021/03/21 01:49:49;;;;;;;21.97;6.30;;;;;;;-1.69;70.19;100464.94;124488;1112;23077;-56
2021/03/21 01:52:29;;;;;;;23.30;4.43;;;;;;;-1.66;70.28;100464.95;124443;1112;23130;-57
2021/03/21 01:54:59;;;;;;;18.20;5.08;;;;;;;-1.65;69.79;100455.56;124383;1112;23079;-58
2021/03/21 01:57:29;;;;;;;16.27;4.90;;;;;;;-1.61;70.17;100452.05;124494;1112;23086;-60
2021/03/21 01:59:58;;;;;;;18.47;5.13;;;;;;;-1.59;69.60;100433.28;124452;1113;23030;-56
2021/03/21 02:02:27;;;;;;;17.03;4.20;;;;;;;-1.56;70.32;100435.22;124331;1112;24677;-57
2021/03/21 02:04:56;;;;;;;23.57;5.77;;;;;;;-1.54;70.36;100424.66;124515;1113;23056;-56
2021/03/21 02:07:36;;;;;;;25.30;5.35;;;;;;;-1.53;70.29;100418.78;124435;1112;28491;-56
2021/03/21 02:10:16;;;;;;;20.30;5.33;;;;;;;-1.53;69.61;100416.04;124371;1112;23252;-59
2021/03/21 02:12:57;;;;;;;17.00;4.77;;;;;;;-1.49;69.92;100416.81;124561;1113;24677;-58
2021/03/21 02:15:34;;;;;;;20.17;5.90;;;;;;;-1.45;70.21;100406.66;124359;1111;27602;-57
2021/03/21 02:18:15;;;;;;;21.80;4.73;;;;;;;-1.45;70.03;100398.45;124396;1112;26389;-57
2021/03/21 02:21:07;;;;;;;21.90;5.65;;;;;;;-1.44;69.79;100391.00;124374;1113;24993;-57
2021/03/21 02:24:11;;;;;;;16.50;4.20;;;;;;;-1.44;70.29;100389.05;124285;1112;27348;-61
2021/03/21 02:27:03;;;;;;;17.60;4.80;;;;;;;-1.43;69.78;100379.67;124307;1112;23049;-57
2021/03/21 02:29:43;;;;;;;15.93;4.47;;;;;;;-1.40;70.17;100380.81;124388;1113;23094;-59
2021/03/21 02:32:18;;;;;;;22.48;5.35;;;;;;;-1.39;70.58;100385.92;124374;1111;22997;-57
2021/03/21 02:34:56;;;;;;;18.77;5.17;;;;;;;-1.37;69.95;100366.34;124517;1111;22997;-57
2021/03/21 02:37:33;;;;;;;16.50;4.77;;;;;;;-1.36;70.37;100376.89;124347;1113;23024;-59
2021/03/21 02:40:11;;;;;;;19.50;5.33;;;;;;;-1.36;69.50;100371.42;124318;1112;27743;-56
2021/03/21 02:42:44;;;;;;;21.53;5.20;;;;;;;-1.36;70.37;100360.47;124418;1112;23077;-56
2021/03/21 02:45:16;;;;;;;21.75;5.25;;;;;;;-1.35;70.14;100367.52;124330;1112;23023;-57
2021/03/21 02:47:47;;;;;;;16.50;4.03;;;;;;;-1.33;69.74;100364.38;124396;1113;23079;-58
2021/03/21 02:50:21;;;;;;;15.70;4.53;;;;;;;-1.33;69.74;100362.42;124319;1112;23074;-58
2021/03/21 02:52:55;;;;;;;16.53;5.10;;;;;;;-1.31;70.62;100351.06;124350;1111;23401;-59
2021/03/21 02:55:28;;;;;;;20.70;5.37;;;;;;;-1.29;70.24;100337.76;124373;1112;22943;-58
2021/03/21 02:58:04;;;;;;;23.47;5.40;;;;;;;-1.27;70.69;100324.45;124221;1112;26028;-59
2021/03/21 03:00:40;;;;;;;18.97;5.37;;;;;;;-1.27;70.53;100324.45;124254;1112;23142;-59
2021/03/21 03:03:14;;;;;;;18.90;4.77;;;;;;;-1.27;70.50;100316.23;124273;1112;23171;-57
2021/03/21 03:05:45;;;;;;;21.93;5.93;;;;;;;-1.24;70.63;100304.49;124319;1112;23076;-57
2021/03/21 03:08:19;;;;;;;17.27;4.60;;;;;;;-1.22;69.85;100304.87;124331;1112;23229;-54
2021/03/21 03:10:54;;;;;;;18.87;4.90;;;;;;;-1.21;69.95;100293.52;124491;1112;23132;-58
2021/03/21 03:13:29;;;;;;;17.90;4.70;;;;;;;-1.19;70.46;100288.42;124313;1112;26045;-58
2021/03/21 03:16:02;;;;;;;16.37;5.13;;;;;;;-1.19;70.58;100284.89;124167;1110;23096;-60
2021/03/21 03:18:41;;;;;;;17.17;4.57;;;;;;;-1.16;70.36;100281.37;124195;1112;23090;-58
2021/03/21 03:21:17;;;;;;;18.55;5.10;;;;;;;-1.14;70.13;100281.75;124145;1112;26379;-57
2021/03/21 03:23:52;;;;;;;16.80;4.47;;;;;;;-1.11;70.73;100268.02;124144;1112;23151;-57
2021/03/21 03:26:27;;;;;;;19.33;4.60;;;;;;;-1.10;69.98;100266.86;124282;1112;26044;-58
2021/03/21 03:29:04;;;;;;;16.40;4.65;;;;;;;-1.08;69.81;100264.50;124426;1112;22997;-57
2021/03/21 03:31:40;;;;;;;14.87;4.83;;;;;;;-1.07;69.82;100254.30;124441;1113;26016;-58
2021/03/21 03:34:09;;;;;;;14.60;4.27;;;;;;;-1.06;69.78;100245.70;124249;1110;27659;-59
2021/03/21 03:36:38;;;;;;;16.60;4.83;;;;;;;-1.03;70.64;100235.88;124305;1112;26405;-58
2021/03/21 03:39:08;;;;;;;15.43;4.57;;;;;;;-1.02;70.62;100238.23;124215;1112;23097;-58
2021/03/21 03:41:40;;;;;;;18.93;4.90;;;;;;;-1.00;69.84;100241.36;124365;1112;23079;-59
2021/03/21 03:44:20;;;;;;;17.27;4.47;;;;;;;-1.00;70.54;100241.36;124446;1112;28654;-57
2021/03/21 03:46:56;;;;;;;16.97;4.50;;;;;;;-0.97;70.20;100226.84;124234;1110;26379;-59
2021/03/21 03:49:38;;;;;;;21.33;5.70;;;;;;;-0.97;70.40;100218.61;124296;1112;25546;-56
2021/03/21 03:52:32;;;;;;;20.23;4.90;;;;;;;-0.94;69.99;100217.83;124457;1112;23036;-59
2021/03/21 03:55:06;;;;;;;17.97;4.60;;;;;;;-0.93;70.10;100211.15;124362;1112;27335;-56
2021/03/21 03:57:41;;;;;;;14.53;4.03;;;;;;;-0.92;70.34;100204.50;124319;1112;23056;-58
2021/03/21 04:00:25;;;;;;;16.10;5.05;;;;;;;-0.90;70.21;100185.69;124434;1112;27293;-61
2021/03/21 04:03:06;;;;;;;16.07;4.30;;;;;;;-0.88;69.65;100188.02;124322;1112;23027;-57
2021/03/21 04:05:40;;;;;;;13.30;4.13;;;;;;;-0.88;70.02;100182.55;124283;1112;26189;-58
2021/03/21 04:08:20;;;;;;;16.13;3.97;;;;;;;-0.85;70.03;100184.49;124422;1112;26022;-60
2021/03/21 04:10:56;;;;;;;15.93;5.43;;;;;;;-0.82;70.10;100183.67;124279;1112;23030;-57
2021/03/21 04:13:31;;;;;;;17.63;4.70;;;;;;;-0.81;70.04;100180.52;124379;1112;23116;-57
2021/03/21 04:16:00;;;;;;;15.37;4.07;;;;;;;-0.80;69.91;100178.56;124293;1111;23075;-59
2021/03/21 04:18:35;;;;;;;12.20;3.57;;;;;;;-0.79;69.92;100177.39;124328;1112;23083;-58
2021/03/21 04:21:12;;;;;;;14.60;4.27;;;;;;;-0.78;70.09;100172.67;124383;1112;23135;-58
2021/03/21 04:23:49;;;;;;;19.63;5.07;;;;;;;-0.76;70.12;100165.60;124383;1112;26022;-60
2021/03/21 04:26:22;;;;;;;15.77;4.03;;;;;;;-0.74;70.18;100159.71;124379;1112;22994;-59
2021/03/21 04:28:55;;;;;;;17.17;5.37;;;;;;;-0.73;70.16;100166.77;124389;1112;23022;-59
2021/03/21 04:31:26;;;;;;;15.60;5.30;;;;;;;-0.75;70.06;100161.70;124248;1112;23193;-60
2021/03/21 04:34:01;;;;;;;19.93;5.53;;;;;;;-0.73;69.62;100156.59;124342;1112;23199;-58
2021/03/21 04:36:34;;;;;;;18.17;5.30;;;;;;;-0.72;69.65;100151.89;124436;1112;23274;-58
2021/03/21 04:39:07;;;;;;;17.97;5.57;;;;;;;-0.70;69.56;100152.27;124565;1112;23024;-57
2021/03/21 04:41:42;;;;;;;17.00;5.35;;;;;;;-0.71;69.62;100139.73;124396;1112;26489;-62
2021/03/21 04:44:16;;;;;;;18.80;5.80;;;;;;;-0.70;70.04;100139.31;124570;1112;23090;-59
2021/03/21 04:46:50;;;;;;;19.53;5.03;;;;;;;-0.69;70.14;100137.36;124575;1112;23023;-56
2021/03/21 04:49:21;;;;;;;14.87;5.83;;;;;;;-0.69;69.11;100131.87;124422;1112;23030;-57
2021/03/21 04:51:58;;;;;;;18.00;4.97;;;;;;;-0.67;69.40;100134.98;124431;1112;23007;-60
2021/03/21 04:54:32;;;;;;;19.23;5.17;;;;;;;-0.67;69.48;100122.06;124355;1112;23075;-58
2021/03/21 04:57:10;;;;;;;17.20;5.17;;;;;;;-0.64;69.64;100125.97;124510;1112;27345;-57
2021/03/21 04:59:40;;;;;;;18.30;5.47;;;;;;;-0.63;69.29;100124.77;124361;1111;23039;-57
2021/03/21 05:02:14;;;;;;;19.73;5.25;;;;;;;-0.62;70.06;100112.63;124349;1111;26590;-58
2021/03/21 05:04:47;;;;;;;19.07;5.53;;;;;;;-0.61;69.65;100112.22;124343;1112;26003;-58
2021/03/21 05:07:29;;;;;;;17.37;5.67;;;;;;;-0.60;70.20;100111.02;124432;1112;26753;-60
2021/03/21 05:10:02;;;;;;;13.57;4.57;;;;;;;-0.59;69.94;100107.10;124401;1111;23039;-58
2021/03/21 05:12:38;;;;;;;16.03;5.27;;;;;;;-0.57;69.20;100112.95;124413;1112;23023;-58
2021/03/21 05:15:17;;;;;;;17.03;4.67;;;;;;;-0.55;69.60;100107.06;124353;1112;26022;-60
2021/03/21 05:17:55;;;;;;;17.93;6.00;;;;;;;-0.54;69.48;100108.63;124410;1112;23577;-57
2021/03/21 05:20:34;;;;;;;15.20;5.87;;;;;;;-0.52;69.60;100106.26;124667;1112;24824;-58
2021/03/21 05:23:15;;;;;;;20.05;6.95;;;;;;;-0.49;69.31;100102.69;124456;1112;23023;-57
2021/03/21 05:25:48;;;;;;;18.00;6.33;;;;;;;-0.48;70.20;100096.81;124374;1112;24668;-57
2021/03/21 05:28:30;;;;;;;17.43;5.57;;;;;;;-0.47;70.22;100095.61;124486;1112;23090;-58
2021/03/21 05:31:00;;;;;;;20.10;5.20;;;;;;;-0.47;69.51;100092.88;124382;1112;26186;-59
2021/03/21 05:33:29;;;;;;;17.05;6.17;;;;;;;-0.46;69.51;100083.47;124360;1112;23154;-58
2021/03/21 05:36:05;;;;;;;18.67;4.90;;;;;;;-0.45;70.12;100082.27;124300;1112;23023;-58
2021/03/21 05:38:43;;;;;;;19.53;5.30;;;;;;;-0.45;69.93;100079.53;124534;1112;23022;-60
2021/03/21 05:41:47;;;;;;;18.90;5.40;;;;;;;-0.47;69.91;100078.38;124353;1112;23080;-57
2021/03/21 05:44:53;;;;;;;17.17;5.50;;;;;;;-0.46;70.33;100074.46;124395;1112;23208;-55
2021/03/21 05:47:50;;;;;;;17.93;5.30;;;;;;;-0.47;70.08;100068.19;124761;1103;22997;-57
2021/03/21 05:50:46;;;;;;;16.97;4.47;;;;;;;-0.45;70.25;100070.52;124454;1112;23188;-55
2021/03/21 05:53:38;;;;;;;23.40;6.47;;;;;;;-0.45;70.57;100067.77;124452;1111;24670;-54
2021/03/21 05:56:22;;;;;;;16.23;4.63;;;;;;;-0.44;70.96;100067.39;124551;1112;27482;-56
2021/03/21 05:59:19;;;;;;;17.10;5.17;;;;;;;-0.42;70.67;100066.97;126121;1111;23484;-55
2021/03/21 06:02:17;;;;;;;19.83;5.20;;;;;;;-0.41;71.60;100063.02;124470;1112;24821;-57
2021/03/21 06:05:23;;;;;;;25.73;6.77;;;;;;;-0.39;71.18;100055.16;124097;1115;27786;-55
2021/03/21 06:08:30;;;;;;;21.30;6.07;;;;;;;-0.37;70.93;100047.30;124087;1115;23042;-57
2021/03/21 06:11:22;;;;;;;17.87;5.57;;;;;;;-0.35;71.27;100039.47;123748;1120;26256;-56
2021/03/21 06:14:09;;;;;;;20.37;7.13;;;;;;;-0.32;71.70;100033.16;123551;1120;23059;-54
2021/03/21 06:17:07;;;;;;;16.90;5.73;;;;;;;-0.31;71.96;100034.72;123940;1122;26118;-57
2021/03/21 06:20:07;;;;;;;22.27;7.20;;;;;;;-0.28;71.00;100031.14;123704;1121;23033;-57
2021/03/21 06:23:05;;;;;;;19.20;6.85;;;;;;;-0.26;70.80;100026.02;123520;1120;23190;-58
2021/03/21 06:25:55;;;;;;;22.43;7.83;;;;;;;-0.25;71.62;100016.62;123533;1120;24703;-56
2021/03/21 06:28:37;;;;;;;;;;;;;;;-0.23;71.70;100008.75;123642;1122;22979;-55
2021/03/21 06:31:36;;;;;;;16.90;6.00;;;;;;;-0.23;71.72;100011.50;123659;1121;21545;-54
2021/03/21 06:34:19;;;;;;;24.33;7.90;;;;;;;-0.20;71.37;100005.95;123452;1122;26112;-55
2021/03/21 06:36:57;;;;;;;20.27;6.80;;;;;;;-0.19;71.53;100002.01;123573;1120;23115;-55
2021/03/21 06:39:54;;;;;;;21.03;7.07;;;;;;;-0.17;70.90;99999.66;123547;1119;25145;-56
2021/03/21 06:42:49;;;;;;;23.13;7.47;;;;;;;-0.16;71.54;100003.94;123598;1118;27406;-55
2021/03/21 06:45:59;;;;;;;19.17;7.23;;;;;;;-0.13;71.01;99997.64;123691;1118;23043;-55
2021/03/21 06:49:15;;;;;;;20.10;7.07;;;;;;;-0.11;71.04;99995.26;124118;1111;26045;-58
2021/03/21 06:52:01;;;;;;;19.97;7.30;;;;;;;-0.06;71.73;100004.97;123994;1115;23113;-56
2021/03/21 06:54:36;;;;;;;21.87;7.47;;;;;;;-0.06;71.83;99997.52;124145;1116;23293;-57
2021/03/21 06:57:49;;;;;;;20.80;8.47;;;;;;;-0.04;71.51;99992.40;124241;1115;26118;-57
2021/03/21 07:00:55;;;;;;;23.30;6.90;;;;;;;-0.03;71.55;99980.25;123726;1117;23053;-57
2021/03/21 07:04:05;;;;;;;20.63;6.80;;;;;;;0.01;71.52;99977.44;123698;1118;23213;-57
2021/03/21 07:07:09;;;;;;;20.20;6.47;;;;;;;0.04;71.52;99978.59;123719;1116;26569;-54
2021/03/21 07:10:14;;;;;;;18.33;5.87;;;;;;;0.05;71.80;99977.38;123683;1119;24695;-55
2021/03/21 07:13:22;;;;;;;20.20;6.40;;;;;;;0.03;72.82;99985.25;123678;1118;23046;-57
2021/03/21 07:16:17;;;;;;;17.67;6.23;;;;;;;0.02;72.60;99973.52;123704;1118;26159;-56
2021/03/21 07:19:19;;;;;;;19.70;7.25;;;;;;;0.01;72.74;99969.21;123858;1118;26485;-55
2021/03/21 07:22:20;;;;;;;20.15;7.90;;;;;;;0.02;72.84;99959.80;123693;1117;27839;-58
2021/03/21 07:25:06;;;;;;;16.33;6.33;;;;;;;0.04;72.89;99953.89;123717;1118;23106;-56
2021/03/21 07:27:49;;;;;;;20.20;7.57;;;;;;;0.06;72.49;99954.25;124080;1115;23100;-56
2021/03/21 07:30:26;;;;;;;17.43;6.07;;;;;;;0.09;72.54;99951.44;124208;1115;23034;-55
2021/03/21 07:33:25;;;;;;;24.33;6.57;;;;;;;0.13;73.03;99951.38;124078;1115;23112;-55
2021/03/21 07:36:06;;;;;;;21.37;6.90;;;;;;;0.18;72.56;99935.23;124084;1115;23033;-57
2021/03/21 07:38:50;;;;;;;23.93;5.63;;;;;;;0.23;72.19;99932.00;124444;1112;24638;-57
2021/03/21 07:41:36;;;;;;;20.13;7.23;;;;;;;0.31;73.04;99935.43;124381;1112;23094;-56
2021/03/21 07:44:39;;;;;;;19.97;6.83;;;;;;;0.38;72.12;99925.09;124386;1112;23222;-54
2021/03/21 07:47:28;;;;;;;17.93;7.50;;;;;;;0.45;72.03;99915.97;124468;1112;23236;-56
2021/03/21 07:50:10;;;;;;;25.97;6.73;;;;;;;0.51;71.80;99914.29;124271;1112;26120;-55
2021/03/21 07:53:00;;;;;;;21.87;7.17;;;;;;;0.56;72.17;99909.08;124508;1112;23036;-57
2021/03/21 07:55:36;;;;;;;18.30;6.85;;;;;;;0.65;71.47;99897.55;124701;1111;23215;-55
2021/03/21 07:58:15;;;;;;;18.83;5.87;;;;;;;0.71;72.03;99896.64;124411;1112;23196;-56
2021/03/21 08:00:45;;;;;;;18.90;7.17;;;;;;;0.81;71.39;99901.16;124414;1112;23001;-56
2021/03/21 08:03:25;;;;;;;19.00;6.53;;;;;;;0.91;71.24;99896.65;124498;1112;23023;-56
2021/03/21 08:06:00;;;;;;;19.65;6.08;;;;;;;1.01;71.26;99887.45;124452;1112;23097;-57
2021/03/21 08:08:35;;;;;;;17.13;5.30;;;;;;;1.06;71.15;99894.41;124290;1112;22986;-55
2021/03/21 08:11:06;;;;;;;17.80;5.60;;;;;;;1.06;71.37;99886.16;124325;1112;27867;-55
2021/03/21 08:13:42;;;;;;;19.77;6.50;;;;;;;1.05;71.38;99890.91;124200;1112;23079;-55
2021/03/21 08:16:16;;;;;;;19.03;6.77;;;;;;;1.05;71.72;99884.63;124248;1112;23023;-58
2021/03/21 08:18:48;;;;;;;20.35;6.60;;;;;;;1.05;72.40;99888.16;124327;1112;23222;-55
2021/03/21 08:21:24;;;;;;;18.77;6.50;;;;;;;1.10;71.79;99881.36;124540;1112;23058;-56
2021/03/21 08:23:57;;;;;;;16.47;6.17;;;;;;;1.16;71.72;99880.45;124357;1112;23205;-55
2021/03/21 08:26:29;;;;;;;16.23;6.00;;;;;;;1.21;71.71;99879.96;124381;1112;23024;-56
2021/03/21 08:29:08;;;;;;;21.03;6.23;;;;;;;1.24;72.11;99878.34;124480;1111;23226;-55
2021/03/21 08:31:40;;;;;;;19.83;7.90;;;;;;;1.28;72.05;99873.55;124376;1111;23091;-55
2021/03/21 08:34:31;;;;;;;15.87;5.90;;;;;;;1.27;72.12;99870.01;124514;1112;23079;-58
2021/03/21 08:37:02;;;;;;;21.68;7.72;;;;;;;1.27;72.65;99866.48;124333;1111;22976;-58
2021/03/21 08:39:41;;;;;;;17.33;6.77;;;;;;;1.22;72.85;99864.25;124547;1113;23076;-57
2021/03/21 08:42:29;;;;;;;17.03;6.00;;;;;;;1.18;73.00;99864.30;124347;1112;26105;-56
2021/03/21 08:45:23;;;;;;;18.90;8.00;;;;;;;1.19;74.13;99863.11;124338;1112;23027;-57
2021/03/21 08:48:04;;;;;;;21.63;8.27;;;;;;;1.22;73.86;99858.75;124520;1112;26048;-55
2021/03/21 08:50:38;;;;;;;20.87;7.80;;;;;;;1.25;74.03;99861.41;124485;1112;23083;-58
2021/03/21 08:53:23;;;;;;;21.43;8.10;;;;;;;1.27;73.84;99847.23;124293;1112;23022;-58
2021/03/21 08:56:11;;;;;;;18.90;6.70;;;;;;;1.28;73.71;99846.80;124868;1111;23077;-55
2021/03/21 08:58:41;;;;;;;17.50;6.65;;;;;;;1.30;72.81;99835.39;124345;1112;23021;-56
2021/03/21 09:01:17;;;;;;;24.02;8.05;;;;;;;1.31;73.26;99834.95;124505;1112;23004;-56
2021/03/21 09:03:48;;;;;;;17.23;6.00;;;;;;;1.34;73.19;99830.59;124267;1111;23024;-55
2021/03/21 09:06:34;;;;;;;20.97;8.00;;;;;;;1.38;73.40;99825.78;124367;1112;23020;-56
2021/03/21 09:09:19;;;;;;;18.70;7.20;;;;;;;1.42;72.58;99826.47;124438;1110;24673;-57
2021/03/21 09:11:51;;;;;;;20.93;7.73;;;;;;;1.44;72.88;99819.35;124268;1112;23024;-58
2021/03/21 09:14:26;;;;;;;18.67;6.67;;;;;;;1.47;73.17;99815.73;124219;1112;23011;-58
2021/03/21 09:17:07;;;;;;;20.67;8.10;;;;;;;1.52;73.12;99814.45;124449;1112;28344;-56
2021/03/21 09:19:39;;;;;;;26.53;8.83;;;;;;;1.57;73.40;99822.20;124361;1112;23177;-54
2021/03/21 09:22:29;;;;;;;23.87;8.57;;;;;;;1.60;72.87;99821.33;124446;1112;23023;-54
2021/03/21 09:25:04;;;;;;;20.07;7.63;;;;;;;1.64;73.68;99813.77;124413;1112;23377;-56
2021/03/21 09:27:37;;;;;;;18.60;7.00;;;;;;;1.65;73.71;99818.08;124288;1112;26443;-57
2021/03/21 09:30:18;;;;;;;18.63;7.17;;;;;;;1.69;74.64;99813.27;124223;1112;23279;-57
2021/03/21 09:32:54;;;;;;;19.20;7.43;;;;;;;1.68;74.72;99814.45;124739;1111;27216;-56
2021/03/21 09:35:34;;;;;;;20.47;7.47;;;;;;;1.65;74.42;99818.84;124207;1111;26042;-55
2021/03/21 09:38:13;;;;;;;16.27;6.17;;;;;;;1.62;74.76;99813.42;124313;1111;23023;-55
2021/03/21 09:40:45;;;;;;;20.80;7.67;;;;;;;1.53;75.54;99816.02;125235;1111;23013;-56
2021/03/21 09:43:19;;;;;;;25.47;8.20;;;;;;;1.51;75.19;99812.92;124290;1112;23184;-55
2021/03/21 09:45:53;;;;;;;19.97;8.33;;;;;;;1.50;75.48;99819.61;124369;1112;23073;-54
2021/03/21 09:48:31;;;;;;;21.90;7.80;;;;;;;1.44;75.91;99816.60;124546;1110;23020;-56
2021/03/21 09:51:06;;;;;;;23.35;9.05;;;;;;;1.37;75.81;99811.25;124312;1112;23455;-55
2021/03/21 09:53:54;;;;;;;25.50;9.50;;;;;;;1.31;76.44;99812.96;124335;1111;28008;-57
2021/03/21 09:56:33;;;;;;;24.77;10.10;;;;;;;1.26;76.63;99799.70;124394;1112;23085;-54
2021/03/21 09:59:14;;;;;;;22.70;10.30;;;;;;;1.23;76.45;99800.57;124474;1111;23070;-57
2021/03/21 10:01:49;;;;;;;23.97;9.97;;;;;;;1.22;77.32;99795.51;124340;1111;23071;-56
2021/03/21 10:04:31;;;;;;;26.27;10.23;;;;;;;1.23;76.79;99799.79;124344;1111;23091;-54
2021/03/21 10:07:07;;;;;;;27.30;10.80;;;;;;;1.23;77.19;99789.57;124480;1112;23021;-56
2021/03/21 10:09:37;;;;;;;27.87;11.20;;;;;;;1.25;77.50;99789.92;124408;1110;23077;-56
2021/03/21 10:12:10;;;;;;;25.08;10.05;;;;;;;1.27;77.51;99794.98;124300;1112;23027;-55
2021/03/21 10:14:50;;;;;;;25.40;10.63;;;;;;;1.26;78.12;99791.45;124462;1112;23009;-65
2021/03/21 10:17:41;;;;;;;28.52;11.70;;;;;;;1.29;77.53;99792.58;124433;1111;23097;-57
2021/03/21 10:20:14;;;;;;;26.37;11.93;;;;;;;1.32;77.57;99792.52;124447;1112;26543;-58
2021/03/21 10:23:00;;;;;;;30.63;13.17;;;;;;;1.38;78.10;99787.28;125119;1111;23065;-56
2021/03/21 10:26:06;;;;;;;30.93;12.83;;;;;;;1.42;78.76;99786.00;124463;1111;23076;-59
2021/03/21 10:28:50;;;;;;;27.40;10.65;;;;;;;1.46;78.98;99794.16;124437;1112;23199;-56
2021/03/21 10:31:32;;;;;;;26.30;10.63;;;;;;;1.45;78.77;99781.59;124679;1111;23070;-58
2021/03/21 10:34:47;;;;;;;27.20;11.25;;;;;;;1.45;78.15;99779.63;124748;1112;23034;-60
2021/03/21 10:37:54;;;;;;;23.73;9.93;;;;;;;1.45;78.75;99770.59;124513;1112;23009;-64
2021/03/21 10:40:45;;;;;;;28.90;10.67;;;;;;;1.47;79.10;99768.97;124497;1112;24720;-59
2021/03/21 10:43:35;;;;;;;;;;;;;;;1.50;79.36;99770.09;124415;1112;24667;-62
2021/03/21 10:46:09;;;;;;;35.30;12.77;;;;;;;1.54;79.41;99771.56;124425;1111;21532;-59
2021/03/21 10:48:54;;;;;;;28.73;10.50;;;;;;;1.58;79.32;99771.47;124576;1110;22987;-58
2021/03/21 10:51:44;;;;;;;28.33;11.80;;;;;;;1.60;79.28;99755.30;124559;1112;23031;-59
2021/03/21 10:54:26;;;;;;;28.33;10.83;;;;;;;1.65;80.20;99752.05;124307;1112;23080;-59
2021/03/21 10:57:33;;;;;;;25.53;11.33;;;;;;;1.70;80.34;99756.27;124507;1112;26402;-60
2021/03/21 11:00:21;;;;;;;26.63;10.70;;;;;;;1.78;80.45;99747.38;124123;1112;23314;-58
2021/03/21 11:03:11;;;;;;;29.97;11.67;;;;;;;1.87;80.92;99753.06;124184;1112;24679;-68
2021/03/21 11:05:44;;;;;;;29.27;13.00;;;;;;;1.96;80.40;99744.97;123816;1112;29109;-60
2021/03/21 11:08:28;;;;;;;26.53;11.43;;;;;;;2.05;81.25;99744.36;125180;1112;27842;-58
2021/03/21 11:11:13;;;;;;;25.13;9.37;;;;;;;2.14;81.58;99745.27;123945;1112;23068;-58
2021/03/21 11:13:42;;;;;;;22.60;9.00;;;;;;;2.22;80.77;99738.36;124179;1112;23032;-55
2021/03/21 11:16:12;;;;;;;23.93;9.70;;;;;;;2.27;81.36;99740.59;124253;1112;23092;-55
2021/03/21 11:18:45;;;;;;;21.85;8.48;;;;;;;2.31;80.64;99735.77;124179;1112;28573;-57
2021/03/21 11:21:24;;;;;;;22.97;9.80;;;;;;;2.33;80.93;99733.34;124170;1112;27810;-55
2021/03/21 11:23:55;;;;;;;22.07;8.40;;;;;;;2.32;80.61;99728.25;124204;1112;23030;-57
2021/03/21 11:26:33;;;;;;;20.67;8.83;;;;;;;2.29;80.89;99724.41;124077;1112;23068;-56
2021/03/21 11:29:24;;;;;;;24.55;9.60;;;;;;;2.29;81.03;99724.41;124087;1112;27806;-58
2021/03/21 11:31:58;;;;;;;25.65;9.90;;;;;;;2.28;81.00;99724.82;124079;1112;23257;-57
2021/03/21 11:34:31;;;;;;;27.63;11.97;;;;;;;2.27;81.21;99724.07;124081;1112;26253;-58
2021/03/21 11:37:04;;;;;;;24.73;11.40;;;;;;;2.28;81.05;99717.34;124352;1112;27435;-57
2021/03/21 11:39:42;;;;;;;24.50;10.57;;;;;;;2.32;80.52;99717.23;124367;1111;22996;-57
2021/03/21 11:42:21;;;;;;;25.30;10.93;;;;;;;2.31;80.49;99719.23;124758;1111;23212;-58
2021/03/21 11:44:53;;;;;;;26.50;10.87;;;;;;;2.30;80.30;99716.89;124541;1112;27683;-56
2021/03/21 11:47:31;;;;;;;24.23;8.90;;;;;;;2.28;81.02;99714.59;124866;1112;22975;-65
2021/03/21 11:50:03;;;;;;;20.70;9.73;;;;;;;2.28;81.28;99705.55;124509;1112;27876;-58
2021/03/21 11:52:39;;;;;;;24.03;9.47;;;;;;;2.27;81.30;99706.77;124622;1111;23017;-57
2021/03/21 11:55:13;;;;;;;20.47;8.83;;;;;;;2.26;81.10;99705.98;124484;1112;23067;-58
2021/03/21 11:58:01;;;;;;;23.45;8.90;;;;;;;2.24;81.02;99708.41;124400;1112;23080;-56
2021/03/21 12:00:33;;;;;;;19.60;7.17;;;;;;;2.20;81.20;99707.73;124574;1112;23231;-55
2021/03/21 12:03:07;;;;;;;20.60;8.83;;;;;;;2.15;81.35;99697.23;124399;1111;26405;-59
2021/03/21 12:05:39;;;;;;;21.93;9.50;;;;;;;2.13;81.77;99694.14;123856;1112;23222;-58
2021/03/21 12:08:24;;;;;;;27.17;10.83;;;;;;;2.13;81.75;99691.39;124208;1112;23023;-58
2021/03/21 12:10:55;;;;;;;25.55;10.45;;;;;;;2.15;81.50;99690.98;124567;1112;28990;-58
2021/03/21 12:13:30;;;;;;;;;;;;;;;2.13;81.73;99685.88;124270;1111;22993;-57